hero-logo

Top 15 Knowers of CAB Cabelas Inc - 2017-07-25

Rank Fund Result (K)
1 London Co Of Virginia $5,561
2 Tig Advisors Llc $1,407
3 Coastland Capital Llc $967
4 Halcyon Management Partners Lp $959
5 Omni Partners Llp $915
6 Hutchin Hill Capital Lp $549
7 Vertex One Asset Management Inc $544
8 Banco Btg Pactual S A $438
9 Sterling Capital Management Llc $369
10 Jane Street Group Llc $190
11 Voloridge Investment Management Llc $165
12 Paloma Partners Management Co $142
13 Folger Hill Asset Management Lp $136
14 Btg Pactual Global Asset Management Ltd $126
15 Glazer Capital Llc $97
Price Chart and News From Google Finance for CAB Cabelas Inc
Owner Date Shares Change Price Change Result (K)
Acrospire Investment Management Llc 2017-03-31 -2,500 $-5.44 $13
Alpine Partners Vi Llc 2017-03-31 179,600 $-5.44 $-977
Amalgamated Bank 2017-03-31 6 $-5.44 $0
Ancora Advisors Llc 2017-03-31 30,193 $-5.44 $-164
Aperio Group Llc 2017-03-31 -1,727 $-5.44 $9
Apollo Management Holdings L P 2017-03-31 100,000 $-5.44 $-544
Banco Btg Pactual S A 2017-03-31 -80,600 $-5.44 $438
Blair William Co Il 2017-03-31 0 $-5.44 $0
Bokf Na 2017-03-31 -1,314 $-5.44 $7
Brown Brothers Harriman Co 2017-03-31 -150 $-5.44 $0
Btg Pactual Global Asset Management Ltd 2017-03-31 -23,200 $-5.44 $126
California State Teachers Retirement System 2017-03-31 -4,600 $-5.44 $25
Carlson Capital L P 2017-03-31 952,000 $-5.44 $-5,178
Coastland Capital Llc 2017-03-31 -177,922 $-5.44 $967
Css Llc Il 2017-03-31 35,625 $-5.44 $-193
D A Davidson Co 2017-03-31 700 $-5.44 $-3
Earnest Partners Llc 2017-03-31 -12 $-5.44 $0
Envestnet Asset Management Inc 2017-03-31 -1,935 $-5.44 $10
Fernwood Investment Management Llc 2017-03-31 0 $-5.44 $0
First Republic Investment Management Inc 2017-03-31 -2,694 $-5.44 $14
Folger Hill Asset Management Lp 2017-03-31 -25,000 $-5.44 $136
Glazer Capital Llc 2017-03-31 -17,900 $-5.44 $97
Group One Trading L P 2017-03-31 26,759 $-5.44 $-145
Guggenheim Capital Llc 2017-03-31 738 $-5.44 $-4
Halcyon Management Partners Lp 2017-03-31 -176,452 $-5.44 $959
Hbk Sorce Advisory Llc 2017-03-31 0 $-5.44 $0
Hg Vora Capital Management Llc 2017-03-31 1,500,000 $-5.44 $-8,160
Horizon Kinetics Llc 2017-03-31 1,990 $-5.44 $-10
Hutchin Hill Capital Lp 2017-03-31 -101,031 $-5.44 $549
Ifp Advisors Inc 2017-03-31 -359 $-5.44 $1
Iht Wealth Management Llc 2017-03-31 0 $-5.44 $0
Infrastructure Capital Advisors Llc 2017-03-31 4,490 $-5.44 $-24
Jane Street Group Llc 2017-03-31 -35,076 $-5.44 $190
Ladenburg Thalmann Financial Services Inc 2017-03-31 601 $-5.44 $-3
London Co Of Virginia 2017-03-31 -1,022,404 $-5.44 $5,561
Mason Street Advisors Llc 2017-03-31 306 $-5.44 $-1
Matthew 25 Management Corp 2017-03-31 0 $-5.44 $0
Monroe Bank Trust Mi 2017-03-31 0 $-5.44 $0
Northwestern Mutual Investment Management Company Llc 2017-03-31 5 $-5.44 $0
Northwestern Mutual Wealth Management Co 2017-03-31 -44 $-5.44 $0
Omni Partners Llp 2017-03-31 -168,312 $-5.44 $915
Paloma Partners Management Co 2017-03-31 -26,280 $-5.44 $142
Patriot Financial Group Insurance Agency Llc 2017-03-31 0 $-5.44 $0
Perella Weinberg Partners Capital Management Lp 2017-03-31 -10,611 $-5.44 $57
Pittenger Anderson Inc 2017-03-31 -100 $-5.44 $0
Polar Asset Management Partners Inc 2017-03-31 20,000 $-5.44 $-108
Price Michael F 2017-03-31 145,400 $-5.44 $-790
Private Capital Management Llc 2017-03-31 -2,955 $-5.44 $16
Proficio Capital Partners Llc 2017-03-31 131 $-5.44 $0
Public Employees Retirement System Of Ohio 2017-03-31 205 $-5.44 $-1
Qcm Cayman Ltd 2017-03-31 4,094 $-5.44 $-22
Seven Eight Capital Lp 2017-03-31 2,348 $-5.44 $-12
Squarepoint Ops Llc 2017-03-31 33,049 $-5.44 $-179
Srs Capital Advisors Inc 2017-03-31 -251 $-5.44 $1
Sterling Capital Management Llc 2017-03-31 -68,000 $-5.44 $369
Stifel Financial Corp 2017-03-31 -10,277 $-5.44 $55
Telemetry Investments L L C 2017-03-31 13,000 $-5.44 $-70
Tig Advisors Llc 2017-03-31 -258,770 $-5.44 $1,407
Ursa Fund Management Llc 2017-03-31 -5,000 $-5.44 $27
Vertex One Asset Management Inc 2017-03-31 -100,000 $-5.44 $544
Voloridge Investment Management Llc 2017-03-31 -30,372 $-5.44 $165
Walleye Trading Llc 2017-03-31 30,015 $-5.44 $-163
Westwood Holdings Group Inc 2017-03-31 0 $-5.44 $0